Time;durP1;ratioP1;P1;durP2;ratioP2;P2;SDS_P1;SDS_P2;PMS_P1;PMS_P2;Temp;Humidity;BMP_temperature;BMP_pressure;BME280_temperature;BME280_humidity;BME280_pressure;Samples;Min_cycle;Max_cycle;Signal;HPM_P1;HPM_P2
2021/06/22 00:00:35;;;;;;;17.17;2.00;;;;;;;20.36;64.45;100401.39;1749183;82;21115;-36
2021/06/22 00:03:02;;;;;;;12.37;2.45;;;;;;;20.42;63.86;100400.14;1749216;82;21011;-37
2021/06/22 00:05:31;;;;;;;16.02;2.50;;;;;;;20.52;63.23;100399.12;1749309;82;20984;-37
2021/06/22 00:07:59;;;;;;;15.70;2.85;;;;;;;20.59;63.04;100391.25;1749334;81;20991;-38
2021/06/22 00:10:28;;;;;;;12.68;2.22;;;;;;;20.65;62.53;100389.55;1749214;82;21027;-37
2021/06/22 00:12:55;;;;;;;16.00;2.70;;;;;;;20.68;62.12;100381.92;1749224;82;20944;-38
2021/06/22 00:15:24;;;;;;;18.50;1.95;;;;;;;20.72;61.65;100382.59;1749245;82;20988;-37
2021/06/22 00:17:50;;;;;;;19.35;2.47;;;;;;;20.76;61.22;100388.02;1749244;81;21039;-38
2021/06/22 00:20:17;;;;;;;10.78;2.12;;;;;;;20.81;61.18;100386.84;1749403;81;21748;-37
2021/06/22 00:22:44;;;;;;;17.05;2.33;;;;;;;20.82;60.98;100379.77;1749237;82;20945;-38
2021/06/22 00:25:12;;;;;;;12.98;2.00;;;;;;;20.81;60.59;100367.11;1749233;82;20928;-38
2021/06/22 00:27:38;;;;;;;16.52;2.37;;;;;;;20.83;60.37;100364.37;1749438;81;21038;-37
2021/06/22 00:30:07;;;;;;;12.45;2.20;;;;;;;20.85;59.79;100369.55;1749256;82;20975;-37
2021/06/22 00:32:33;;;;;;;12.93;1.70;;;;;;;20.89;59.41;100367.09;1749455;82;21126;-39
2021/06/22 00:35:00;;;;;;;12.58;2.08;;;;;;;20.93;59.21;100371.20;1749117;82;20940;-38
2021/06/22 00:37:27;;;;;;;14.55;2.50;;;;;;;20.95;59.00;100367.55;1749233;82;20972;-36
2021/06/22 00:39:53;;;;;;;18.30;1.77;;;;;;;20.94;58.87;100361.91;1749341;82;20980;-37
2021/06/22 00:42:20;;;;;;;19.77;2.02;;;;;;;20.95;59.02;100365.38;1749409;82;21620;-39
2021/06/22 00:44:53;;;;;;;19.95;2.27;;;;;;;20.92;58.81;100366.89;1749138;82;21887;-39
2021/06/22 00:47:21;;;;;;;23.87;2.08;;;;;;;20.92;58.79;100367.75;1748854;82;21015;-37
2021/06/22 00:49:48;;;;;;;24.02;2.35;;;;;;;20.90;58.91;100368.77;1749225;82;21019;-37
2021/06/22 00:52:25;;;;;;;15.10;2.00;;;;;;;20.88;58.94;100374.61;1749179;82;20925;-39
2021/06/22 00:54:52;;;;;;;13.45;2.20;;;;;;;20.85;59.03;100372.17;1749551;82;20975;-38
2021/06/22 00:57:19;;;;;;;13.25;2.05;;;;;;;20.83;58.66;100375.38;1749304;81;21921;-37
2021/06/22 00:59:46;;;;;;;9.68;1.75;;;;;;;20.86;57.02;100371.23;1749295;82;21004;-35
2021/06/22 01:02:13;;;;;;;14.18;1.90;;;;;;;21.00;56.33;100372.98;1749163;82;20987;-37
2021/06/22 01:04:40;;;;;;;15.98;2.12;;;;;;;21.13;55.50;100381.80;1721742;82;20949;-37
2021/06/22 01:07:26;;;;;;;28.90;2.58;;;;;;;21.26;54.38;100379.22;1749430;81;20928;-35
2021/06/22 01:09:54;;;;;;;10.50;2.00;;;;;;;21.45;53.85;100377.54;1749270;82;21043;-37
2021/06/22 01:12:21;;;;;;;14.23;1.57;;;;;;;21.57;53.45;100382.92;1721969;82;20913;-36
2021/06/22 01:14:48;;;;;;;23.92;3.17;;;;;;;21.67;53.12;100378.79;1749270;82;20972;-37
2021/06/22 01:17:15;;;;;;;20.45;2.05;;;;;;;21.75;53.20;100375.16;1749145;82;20932;-35
2021/06/22 01:19:43;;;;;;;16.40;2.08;;;;;;;21.77;52.90;100374.58;1749302;82;20927;-35
2021/06/22 01:22:11;;;;;;;22.35;2.45;;;;;;;21.79;53.52;100378.45;1749194;82;21921;-37
2021/06/22 01:24:45;;;;;;;18.20;2.27;;;;;;;21.78;52.71;100373.64;1747952;82;20998;-37
2021/06/22 01:27:13;;;;;;;18.60;2.80;;;;;;;21.90;51.85;100372.45;1749186;82;20924;-36
2021/06/22 01:29:40;;;;;;;26.12;2.85;;;;;;;22.00;51.78;100368.72;1749091;82;20929;-37
2021/06/22 01:32:08;;;;;;;22.15;2.35;;;;;;;22.04;51.73;100376.30;1749518;82;20940;-38
2021/06/22 01:34:36;;;;;;;11.70;2.08;;;;;;;22.08;51.61;100371.18;1748672;82;21145;-36
2021/06/22 01:37:07;;;;;;;15.90;3.10;;;;;;;22.12;51.69;100374.95;1749471;82;20976;-36
2021/06/22 01:39:35;;;;;;;28.30;3.67;;;;;;;22.12;51.36;100373.14;1749272;82;20964;-36
2021/06/22 01:42:04;;;;;;;20.17;2.30;;;;;;;22.14;51.41;100387.55;1749388;82;21489;-36
2021/06/22 01:44:33;;;;;;;23.00;2.58;;;;;;;22.16;51.07;100384.33;1749151;81;21032;-36
2021/06/22 01:47:00;;;;;;;18.82;2.83;;;;;;;22.19;50.98;100385.43;1749134;82;21144;-37
2021/06/22 01:49:27;;;;;;;27.52;2.55;;;;;;;22.22;51.40;100387.86;1721852;82;21454;-38
2021/06/22 01:51:55;;;;;;;22.35;1.95;;;;;;;22.22;51.15;100370.72;1749104;82;20940;-37
2021/06/22 01:54:22;;;;;;;17.45;2.67;;;;;;;22.21;50.90;100376.94;1749480;82;20943;-37
2021/06/22 01:56:51;;;;;;;27.50;3.20;;;;;;;22.20;50.90;100369.98;1749120;82;21051;-35
2021/06/22 01:59:19;;;;;;;22.95;2.40;;;;;;;22.20;50.90;100371.30;1749303;80;21129;-36
2021/06/22 02:01:55;;;;;;;;;;;;;;;22.19;51.06;100370.94;1751001;82;21042;-37
2021/06/22 02:04:23;;;;;;;17.17;2.90;;;;;;;22.17;50.84;100367.56;1748287;82;20432;-35
2021/06/22 02:06:53;;;;;;;17.70;2.40;;;;;;;22.16;50.76;100356.16;1749266;82;20984;-37
2021/06/22 02:09:27;;;;;;;24.73;3.37;;;;;;;22.18;50.67;100354.75;1707438;82;21022;-37
2021/06/22 02:11:54;;;;;;;41.15;3.52;;;;;;;22.17;50.65;100338.58;1721438;82;21015;-37
2021/06/22 02:14:23;;;;;;;22.20;2.75;;;;;;;22.17;50.55;100342.53;1749288;82;20944;-38
2021/06/22 02:16:51;;;;;;;17.87;3.42;;;;;;;22.17;50.85;100333.30;1749398;82;20940;-38
2021/06/22 02:19:19;;;;;;;41.53;3.42;;;;;;;22.17;50.71;100332.81;1749253;82;20968;-36
2021/06/22 02:21:46;;;;;;;28.92;3.02;;;;;;;22.19;50.56;100347.22;1749427;82;20963;-35
2021/06/22 02:24:12;;;;;;;27.98;2.87;;;;;;;22.22;50.36;100340.41;1749269;82;21140;-35
2021/06/22 02:26:39;;;;;;;26.73;2.70;;;;;;;22.23;50.62;100360.55;1749250;82;20952;-36
2021/06/22 02:29:06;;;;;;;22.95;3.30;;;;;;;22.25;50.56;100342.83;1749415;82;20944;-37
2021/06/22 02:31:32;;;;;;;19.90;3.00;;;;;;;22.27;50.27;100342.73;1749339;82;21024;-37
2021/06/22 02:33:59;;;;;;;30.17;3.33;;;;;;;22.28;50.44;100330.75;1721887;82;20987;-36
2021/06/22 02:36:27;;;;;;;24.18;3.55;;;;;;;22.31;50.23;100328.39;1721768;82;21095;-37
2021/06/22 02:38:54;;;;;;;23.47;3.27;;;;;;;22.34;50.28;100320.26;1749300;82;21423;-35
2021/06/22 02:41:21;;;;;;;21.70;3.15;;;;;;;22.34;50.30;100315.81;1749556;82;21561;-37
2021/06/22 02:43:50;;;;;;;23.90;3.27;;;;;;;22.34;50.59;100312.34;1748577;82;20940;-36
2021/06/22 02:46:17;;;;;;;17.92;3.22;;;;;;;22.35;50.15;100308.76;1749437;82;21513;-35
2021/06/22 02:48:45;;;;;;;25.35;2.95;;;;;;;22.36;50.41;100313.08;1749504;82;20961;-35
2021/06/22 02:51:12;;;;;;;44.60;4.00;;;;;;;22.39;50.09;100319.45;1749327;80;20920;-35
2021/06/22 02:53:40;;;;;;;34.60;3.98;;;;;;;22.41;50.21;100308.81;1748731;82;21545;-36
2021/06/22 02:56:08;;;;;;;31.62;4.35;;;;;;;22.47;49.53;100297.85;1749435;82;20995;-37
2021/06/22 02:58:37;;;;;;;44.70;3.45;;;;;;;22.50;49.93;100310.35;1749557;82;20948;-38
2021/06/22 03:01:05;;;;;;;39.00;4.12;;;;;;;22.54;49.65;100339.97;1721775;82;21899;-37
2021/06/22 03:03:31;;;;;;;28.32;4.05;;;;;;;22.57;50.36;100368.75;1749505;82;21498;-36
2021/06/22 03:06:00;;;;;;;32.98;3.77;;;;;;;22.60;50.67;100393.59;1748573;82;20881;-35
2021/06/22 03:08:32;;;;;;;29.60;4.67;;;;;;;22.62;50.78;100377.21;1748063;82;20979;-37
2021/06/22 03:11:00;;;;;;;33.30;4.10;;;;;;;22.68;50.50;100379.41;1749455;81;21494;-36
2021/06/22 03:13:27;;;;;;;47.20;4.85;;;;;;;22.75;51.13;100425.12;1749317;82;21130;-37
2021/06/22 03:15:55;;;;;;;47.73;5.12;;;;;;;22.81;51.49;100412.81;1749462;82;20955;-37
2021/06/22 03:18:22;;;;;;;42.48;3.98;;;;;;;22.89;51.02;100401.26;1749355;82;21454;-38
2021/06/22 03:20:50;;;;;;;36.77;4.62;;;;;;;22.99;51.22;100408.50;1749255;82;20937;-38
2021/06/22 03:23:18;;;;;;;28.87;4.45;;;;;;;23.10;51.25;100415.16;1749512;82;21553;-39
2021/06/22 03:25:46;;;;;;;24.92;3.60;;;;;;;23.20;51.38;100410.06;1749240;82;21043;-38
2021/06/22 03:28:13;;;;;;;35.03;4.65;;;;;;;23.30;51.27;100407.63;1749332;82;21007;-38
2021/06/22 03:30:47;;;;;;;33.75;4.95;;;;;;;23.37;51.01;100411.53;1749542;82;20973;-39
2021/06/22 03:33:13;;;;;;;43.30;4.28;;;;;;;23.40;51.09;100382.25;1749337;82;21573;-37
2021/06/22 03:35:41;;;;;;;35.80;4.12;;;;;;;23.41;51.02;100393.64;1721847;82;21003;-38
2021/06/22 03:38:08;;;;;;;52.75;4.97;;;;;;;23.35;50.90;100384.36;1749265;82;21138;-39
2021/06/22 03:40:35;;;;;;;27.15;4.78;;;;;;;23.28;51.18;100387.10;1749471;82;21015;-39
2021/06/22 03:43:01;;;;;;;39.15;4.75;;;;;;;23.20;51.96;100399.05;1749527;82;21005;-38
2021/06/22 03:45:29;;;;;;;36.95;4.67;;;;;;;23.16;52.25;100417.84;1737293;81;21003;-36
2021/06/22 03:47:56;;;;;;;47.40;5.40;;;;;;;23.08;51.90;100403.88;1735355;82;20940;-38
2021/06/22 03:50:23;;;;;;;41.23;4.62;;;;;;;23.02;51.94;100401.69;1735202;82;21119;-35
2021/06/22 03:52:50;;;;;;;55.28;5.90;;;;;;;22.96;51.95;100426.25;1735137;82;20972;-36
2021/06/22 03:55:27;;;;;;;52.75;5.45;;;;;;;22.92;52.36;100424.78;1733016;82;20988;-37
2021/06/22 03:57:59;;;;;;;48.92;5.33;;;;;;;22.88;52.10;100429.06;1733817;82;20973;-37
2021/06/22 04:00:28;;;;;;;36.90;5.05;;;;;;;22.82;52.18;100418.45;1735413;82;21020;-38
2021/06/22 04:02:59;;;;;;;66.42;6.53;;;;;;;22.78;52.68;100428.86;1735214;82;21058;-36
2021/06/22 04:05:30;;;;;;;49.10;5.97;;;;;;;22.71;52.10;100428.45;1735234;82;20980;-38
2021/06/22 04:08:00;;;;;;;53.33;6.00;;;;;;;22.64;52.53;100429.38;1734451;82;21594;-38
2021/06/22 04:10:28;;;;;;;56.05;6.40;;;;;;;22.59;52.42;100416.95;1712909;82;20957;-38
2021/06/22 04:12:55;;;;;;;55.67;5.45;;;;;;;22.55;52.54;100413.34;1735275;82;21028;-37
2021/06/22 04:15:22;;;;;;;47.85;5.08;;;;;;;22.50;53.07;100422.42;1735274;82;21475;-37
2021/06/22 04:17:49;;;;;;;67.10;6.33;;;;;;;22.45;53.50;100421.02;1735149;82;20957;-37
2021/06/22 04:20:17;;;;;;;49.03;6.45;;;;;;;22.39;53.40;100421.81;1735226;82;20964;-38
2021/06/22 04:22:44;;;;;;;51.58;6.22;;;;;;;22.37;52.59;100426.36;1735227;82;20973;-37
2021/06/22 04:25:14;;;;;;;60.98;6.72;;;;;;;22.38;52.42;100433.31;1734536;82;21033;-38
2021/06/22 04:27:41;;;;;;;67.97;6.33;;;;;;;22.45;52.67;100435.52;1735169;82;21123;-36
2021/06/22 04:30:09;;;;;;;60.33;7.33;;;;;;;22.48;52.94;100435.34;1735237;82;20929;-37
2021/06/22 04:32:37;;;;;;;60.92;6.72;;;;;;;22.58;52.61;100430.27;1735228;82;21015;-37
2021/06/22 04:35:06;;;;;;;62.93;6.62;;;;;;;22.62;52.65;100415.45;1735193;82;20960;-37
2021/06/22 04:37:33;;;;;;;59.83;6.83;;;;;;;22.63;52.54;100427.69;1735424;82;20932;-38
2021/06/22 04:39:59;;;;;;;66.72;5.65;;;;;;;22.59;52.51;100431.47;1735236;82;21087;-38
2021/06/22 04:42:26;;;;;;;61.37;6.67;;;;;;;22.57;52.71;100431.22;1735139;82;21023;-38
2021/06/22 04:44:52;;;;;;;69.82;7.12;;;;;;;22.55;52.64;100427.85;1735169;82;21016;-36
2021/06/22 04:47:19;;;;;;;61.75;7.55;;;;;;;22.59;52.77;100422.23;1735245;82;20929;-37
2021/06/22 04:49:46;;;;;;;50.88;6.47;;;;;;;22.72;52.79;100426.66;1735280;82;21476;-36
2021/06/22 04:52:12;;;;;;;45.33;6.25;;;;;;;22.84;52.43;100425.78;1735310;82;21751;-36
2021/06/22 04:54:39;;;;;;;67.37;7.30;;;;;;;23.00;51.96;100422.06;1735150;82;20973;-36
2021/06/22 04:57:07;;;;;;;70.12;7.30;;;;;;;23.16;52.29;100418.70;1735211;82;20976;-36
2021/06/22 04:59:36;;;;;;;68.55;7.33;;;;;;;23.36;51.31;100415.95;1735280;82;20996;-38
2021/06/22 05:02:03;;;;;;;71.50;8.75;;;;;;;23.57;51.11;100415.33;1735390;82;20985;-36
2021/06/22 05:04:31;;;;;;;59.23;7.70;;;;;;;23.81;49.46;100414.45;1735246;82;21188;-37
2021/06/22 05:06:58;;;;;;;50.98;7.53;;;;;;;23.97;49.32;100423.39;1735119;82;21467;-37
2021/06/22 05:09:25;;;;;;;67.42;7.58;;;;;;;24.10;49.87;100424.16;1735150;82;21031;-37
2021/06/22 05:11:52;;;;;;;82.88;8.13;;;;;;;24.28;49.85;100422.39;1735224;82;20957;-39
2021/06/22 05:14:19;;;;;;;70.78;8.25;;;;;;;24.49;48.51;100413.76;1735387;82;21028;-35
2021/06/22 05:16:48;;;;;;;80.87;8.20;;;;;;;24.62;48.94;100423.72;1735540;82;21083;-38
2021/06/22 05:19:13;;;;;;;70.05;8.60;;;;;;;24.69;48.38;100428.05;1735228;81;20981;-38
2021/06/22 05:21:40;;;;;;;75.35;8.80;;;;;;;24.80;48.43;100440.47;1712645;82;20933;-37
2021/06/22 05:24:07;;;;;;;73.52;8.75;;;;;;;24.92;48.11;100444.81;1735179;82;20988;-38
2021/06/22 05:26:33;;;;;;;89.72;10.45;;;;;;;25.03;48.40;100445.75;1735193;82;20976;-36
2021/06/22 05:29:00;;;;;;;73.45;9.03;;;;;;;25.19;47.01;100451.50;1735182;82;21158;-36
2021/06/22 05:31:26;;;;;;;68.57;7.92;;;;;;;25.30;47.37;100463.02;1735452;82;20917;-37
2021/06/22 05:33:52;;;;;;;76.60;9.00;;;;;;;25.42;47.17;100456.75;1735270;82;21015;-36
2021/06/22 05:36:19;;;;;;;68.40;8.58;;;;;;;25.52;46.77;100453.72;1735225;82;21000;-38
2021/06/22 05:38:46;;;;;;;70.90;8.18;;;;;;;25.53;46.21;100460.70;1735273;82;20996;-37
2021/06/22 05:41:12;;;;;;;65.83;8.25;;;;;;;25.55;47.38;100464.56;1735266;82;21133;-37
2021/06/22 05:43:38;;;;;;;77.97;8.28;;;;;;;25.65;47.65;100462.00;1735071;82;21004;-37
2021/06/22 05:46:05;;;;;;;70.42;8.45;;;;;;;25.83;46.70;100467.08;1735230;81;20906;-39
2021/06/22 05:48:31;;;;;;;66.02;8.40;;;;;;;25.99;47.09;100473.77;1735274;82;20909;-39
2021/06/22 05:50:58;;;;;;;74.97;9.28;;;;;;;26.16;46.33;100468.86;1735547;82;21009;-39
2021/06/22 05:53:24;;;;;;;104.35;11.35;;;;;;;26.26;46.24;100469.78;1735138;82;21150;-38
2021/06/22 05:55:51;;;;;;;83.40;9.98;;;;;;;26.34;45.45;100473.12;1735171;82;20956;-37
2021/06/22 06:00:18;;;;;;;84.17;10.35;;;;;;;26.47;44.16;100464.45;1797683;79;22092;-38
2021/06/22 06:02:44;;;;;;;89.92;10.60;;;;;;;26.42;45.35;100467.16;1757449;81;21022;-37
2021/06/22 06:05:13;;;;;;;83.62;10.70;;;;;;;26.50;45.89;100467.34;1757290;81;21114;-38
2021/06/22 06:07:39;;;;;;;97.33;11.03;;;;;;;26.64;45.25;100469.62;1757471;81;20972;-37
2021/06/22 06:10:07;;;;;;;69.07;9.48;;;;;;;26.78;44.55;100467.13;1757387;81;20932;-36
2021/06/22 06:12:36;;;;;;;86.57;10.58;;;;;;;26.89;46.10;100468.84;1757455;81;20995;-36
2021/06/22 06:15:05;;;;;;;86.72;10.08;;;;;;;27.09;45.03;100463.59;1757463;81;21032;-38
2021/06/22 06:17:34;;;;;;;93.10;10.70;;;;;;;27.25;44.11;100466.58;1757350;81;20928;-39
2021/06/22 06:20:01;;;;;;;89.05;9.80;;;;;;;27.28;43.71;100463.29;1757699;81;20975;-39
2021/06/22 06:22:27;;;;;;;110.30;11.28;;;;;;;27.23;43.49;100467.20;1757441;81;20936;-38
2021/06/22 06:24:56;;;;;;;90.45;10.68;;;;;;;27.24;43.72;100466.22;1757474;81;20980;-38
2021/06/22 06:27:25;;;;;;;83.30;10.58;;;;;;;27.28;44.51;100463.29;1757332;81;20940;-37
2021/06/22 06:32:17;;;;;;;104.87;12.55;;;;;;;27.57;44.21;100463.83;1757404;81;20984;-39
2021/06/22 06:34:44;;;;;;;115.12;12.73;;;;;;;27.62;44.05;100460.27;1757302;81;21030;-39
2021/06/22 06:37:11;;;;;;;91.65;11.55;;;;;;;27.72;42.78;100452.29;1757356;81;20988;-38
2021/06/22 06:39:39;;;;;;;132.65;13.60;;;;;;;27.59;42.85;100461.40;1757423;81;20983;-39
2021/06/22 06:42:06;;;;;;;94.40;13.53;;;;;;;27.53;43.09;100465.92;1757416;81;21138;-38
2021/06/22 06:44:33;;;;;;;97.70;12.10;;;;;;;27.47;44.03;100474.42;1751134;81;21506;-38
2021/06/22 06:46:59;;;;;;;126.97;12.65;;;;;;;27.52;42.77;100471.73;1749041;81;21470;-37
2021/06/22 06:49:25;;;;;;;92.33;11.78;;;;;;;27.50;44.46;100476.33;1749179;82;21458;-38
2021/06/22 06:51:52;;;;;;;124.53;13.62;;;;;;;27.67;44.56;100475.33;1749074;82;21498;-36
2021/06/22 06:54:18;;;;;;;109.37;12.50;;;;;;;27.91;41.20;100470.89;1749130;81;21780;-37
2021/06/22 06:56:45;;;;;;;100.75;12.47;;;;;;;27.82;42.29;100468.59;1749043;81;21723;-37
2021/06/22 06:59:11;;;;;;;107.40;13.22;;;;;;;27.78;43.12;100483.63;1743172;81;21431;-37
2021/06/22 07:01:39;;;;;;;113.77;13.98;;;;;;;27.83;43.68;100482.23;1735771;82;21012;-38
2021/06/22 07:04:05;;;;;;;99.47;11.70;;;;;;;27.98;42.19;100484.47;1735987;82;20956;-37
2021/06/22 07:06:32;;;;;;;106.90;13.48;;;;;;;28.10;43.43;100493.97;1735800;82;21160;-37
2021/06/22 07:08:58;;;;;;;103.60;12.65;;;;;;;28.35;43.50;100496.20;1735941;82;20933;-36
2021/06/22 07:11:25;;;;;;;108.87;13.38;;;;;;;28.63;44.34;100498.92;1735593;82;20976;-41
2021/06/22 07:13:54;;;;;;;126.45;14.83;;;;;;;28.95;42.42;100501.20;1735300;81;20949;-38
2021/06/22 07:16:20;;;;;;;121.40;14.20;;;;;;;29.03;40.77;100503.62;1735318;82;20945;-38
2021/06/22 07:18:47;;;;;;;107.03;14.25;;;;;;;28.98;40.28;100503.23;1735285;82;21130;-38
2021/06/22 07:21:16;;;;;;;114.67;14.47;;;;;;;28.93;39.98;100495.67;1735237;82;21041;-39
2021/06/22 07:23:44;;;;;;;106.22;13.30;;;;;;;28.82;41.36;100506.02;1735407;82;20933;-39
2021/06/22 07:26:12;;;;;;;112.17;12.90;;;;;;;28.78;40.32;100498.77;1735399;82;20945;-36
2021/06/22 07:28:39;;;;;;;109.40;14.23;;;;;;;28.79;41.34;100504.98;1735681;82;21479;-38
2021/06/22 07:31:07;;;;;;;109.90;13.72;;;;;;;28.77;40.15;100503.76;1735244;82;21135;-36
2021/06/22 07:33:34;;;;;;;102.45;13.68;;;;;;;28.60;41.92;100513.35;1735499;82;21028;-37
2021/06/22 07:36:01;;;;;;;120.65;13.08;;;;;;;28.62;42.67;100507.89;1735336;82;21010;-39
2021/06/22 07:38:27;;;;;;;118.90;13.18;;;;;;;28.75;42.80;100520.88;1735295;82;21016;-38
2021/06/22 07:40:56;;;;;;;100.20;14.40;;;;;;;28.94;41.66;100515.99;1735381;82;20996;-39
2021/06/22 07:43:22;;;;;;;107.40;13.98;;;;;;;29.09;40.12;100524.33;1735361;82;21149;-38
2021/06/22 07:45:49;;;;;;;103.53;12.80;;;;;;;29.10;41.13;100516.69;1735396;82;21557;-37
2021/06/22 07:48:15;;;;;;;119.42;12.58;;;;;;;29.22;42.24;100523.98;1735443;82;21578;-37
2021/06/22 07:50:42;;;;;;;95.10;12.82;;;;;;;29.34;42.71;100517.95;1735392;82;22156;-38
2021/06/22 07:53:08;;;;;;;91.65;12.15;;;;;;;29.58;43.92;100520.08;1735499;82;21529;-38
2021/06/22 07:55:35;;;;;;;107.80;12.07;;;;;;;29.86;42.16;100522.67;1735556;82;21779;-39
2021/06/22 07:58:02;;;;;;;109.63;13.90;;;;;;;29.86;42.22;100523.15;1735336;82;21502;-39
2021/06/22 08:00:41;;;;;;;98.30;11.63;;;;;;;29.95;41.98;100522.25;1735359;81;21471;-38
2021/06/22 08:03:11;;;;;;;114.40;14.63;;;;;;;30.16;42.33;100519.75;1735477;82;21039;-37
2021/06/22 08:05:39;;;;;;;136.15;13.85;;;;;;;30.49;40.07;100517.32;1735318;82;21211;-38
2021/06/22 08:08:06;;;;;;;127.67;16.25;;;;;;;30.58;39.77;100523.55;1735363;82;21087;-38
2021/06/22 08:10:33;;;;;;;131.65;16.97;;;;;;;30.64;39.26;100517.60;1735331;82;20948;-40
2021/06/22 08:12:59;;;;;;;137.72;14.70;;;;;;;30.71;38.57;100519.14;1735340;82;20925;-37
2021/06/22 08:15:27;;;;;;;118.13;13.75;;;;;;;30.89;40.80;100515.87;1735257;82;21211;-37
2021/06/22 08:17:54;;;;;;;131.27;15.75;;;;;;;31.14;41.64;100517.81;1735257;82;20929;-39
2021/06/22 08:20:21;;;;;;;132.15;17.25;;;;;;;31.29;38.51;100518.05;1735301;82;21146;-37
2021/06/22 08:22:52;;;;;;;128.78;16.23;;;;;;;31.28;38.82;100517.20;1735157;82;20933;-38
2021/06/22 08:25:22;;;;;;;141.68;17.10;;;;;;;31.33;39.23;100516.23;1735326;82;21214;-38
2021/06/22 08:27:49;;;;;;;106.87;15.23;;;;;;;31.33;39.75;100516.72;1735429;82;20964;-37
2021/06/22 08:30:17;;;;;;;108.60;16.05;;;;;;;31.40;39.55;100520.41;1735298;82;20932;-37
2021/06/22 08:32:43;;;;;;;129.95;16.52;;;;;;;31.59;39.79;100518.44;1735553;82;21123;-38
2021/06/22 08:35:11;;;;;;;162.25;19.37;;;;;;;31.77;38.07;100518.31;1735260;82;21015;-38
2021/06/22 08:37:38;;;;;;;131.75;16.30;;;;;;;31.71;37.13;100515.80;1735524;82;21011;-38
2021/06/22 08:40:06;;;;;;;136.60;16.82;;;;;;;31.54;37.98;100515.77;1735276;82;21019;-38
2021/06/22 08:42:36;;;;;;;146.82;16.82;;;;;;;31.46;37.60;100521.11;1735380;82;20964;-39
2021/06/22 08:45:06;;;;;;;139.82;16.75;;;;;;;31.42;38.78;100521.59;1735294;82;21561;-38
2021/06/22 08:47:32;;;;;;;149.00;17.62;;;;;;;31.57;37.95;100515.09;1735177;82;21024;-39
2021/06/22 08:49:59;;;;;;;149.35;19.10;;;;;;;31.58;37.70;100522.12;1690835;82;20977;-39
2021/06/22 08:52:30;;;;;;;167.47;20.62;;;;;;;31.52;38.10;100519.11;1735305;82;20964;-38
2021/06/22 08:54:56;;;;;;;165.12;19.70;;;;;;;31.55;35.39;100527.28;1735386;82;20965;-38
2021/06/22 08:57:23;;;;;;;163.00;18.70;;;;;;;31.33;36.58;100532.28;1735266;82;21155;-38
2021/06/22 08:59:50;;;;;;;153.57;17.65;;;;;;;31.33;38.90;100528.75;1741397;81;21019;-39
2021/06/22 09:02:24;;;;;;;134.22;16.40;;;;;;;31.57;38.16;100533.81;1749377;82;21521;-39
2021/06/22 09:04:46;;;;;;;136.95;18.07;;;;;;;31.76;36.89;100533.55;1748543;82;21668;-38
2021/06/22 09:07:56;;;;;;;127.02;17.52;;;;;;;31.73;36.53;100530.32;1749414;82;21455;-39
2021/06/22 09:10:30;;;;;;;159.93;19.50;;;;;;;31.66;37.64;100532.33;1748588;82;21094;-38
2021/06/22 09:13:00;;;;;;;170.05;17.57;;;;;;;31.66;36.32;100530.99;1741326;82;21058;-38
2021/06/22 09:15:29;;;;;;;134.65;17.70;;;;;;;31.59;36.92;100538.50;1730591;82;21030;-37
2021/06/22 09:17:58;;;;;;;144.15;16.97;;;;;;;31.63;38.07;100535.83;1732278;82;20936;-38
2021/06/22 09:20:42;;;;;;;131.85;16.17;;;;;;;31.72;37.21;100529.98;1731175;82;20900;-37
2021/06/22 09:23:17;;;;;;;138.15;18.42;;;;;;;31.83;37.50;100537.73;1727957;82;21152;-40
2021/06/22 09:25:46;;;;;;;153.82;16.90;;;;;;;32.02;37.94;100535.22;1721984;82;20935;-40
2021/06/22 09:28:16;;;;;;;139.47;16.77;;;;;;;32.31;38.93;100535.69;1728953;82;20972;-38
2021/06/22 09:30:52;;;;;;;184.97;19.65;;;;;;;32.61;37.01;100525.30;1721529;82;20948;-37
2021/06/22 09:33:38;;;;;;;169.93;17.77;;;;;;;32.78;35.82;100533.59;1735747;82;20972;-38
2021/06/22 09:36:26;;;;;;;152.87;18.62;;;;;;;32.84;36.14;100538.77;1725479;82;21840;-37
2021/06/22 09:38:58;;;;;;;161.05;19.37;;;;;;;32.92;34.59;100537.94;1728429;82;21502;-37
2021/06/22 09:41:37;;;;;;;159.67;19.17;;;;;;;32.96;35.98;100537.40;1729390;82;20960;-38
2021/06/22 09:44:17;;;;;;;161.37;18.12;;;;;;;33.01;34.16;100534.73;1721790;82;20908;-39
2021/06/22 09:46:56;;;;;;;138.43;18.42;;;;;;;32.93;33.62;100540.42;1723940;82;20856;-37
2021/06/22 09:49:34;;;;;;;161.97;18.92;;;;;;;32.75;34.39;100537.96;1727777;82;21462;-38
2021/06/22 09:52:10;;;;;;;173.00;17.62;;;;;;;32.59;33.80;100530.81;1721284;82;20995;-39
2021/06/22 09:54:51;;;;;;;157.72;17.62;;;;;;;32.59;35.62;100536.17;1723347;82;20992;-38
2021/06/22 09:57:22;;;;;;;153.87;16.77;;;;;;;32.87;34.59;100537.08;1732667;82;20971;-38
2021/06/22 09:59:58;;;;;;;132.50;18.48;;;;;;;33.11;34.76;100538.02;1728047;81;21047;-37
2021/06/22 10:02:26;;;;;;;159.27;21.15;;;;;;;33.24;33.74;100532.94;1722243;82;21479;-37
2021/06/22 10:04:59;;;;;;;159.95;17.73;;;;;;;33.03;36.28;100544.25;1726908;82;21054;-38
2021/06/22 10:07:27;;;;;;;137.12;15.25;;;;;;;33.09;35.97;100541.38;1736995;82;20975;-37
2021/06/22 10:10:00;;;;;;;135.45;16.05;;;;;;;33.25;35.46;100538.63;1734552;82;20904;-38
2021/06/22 10:12:29;;;;;;;130.43;16.32;;;;;;;33.45;36.55;100534.16;1729246;82;20980;-38
2021/06/22 10:15:01;;;;;;;131.25;15.98;;;;;;;33.71;34.49;100537.00;1729564;82;21151;-37
2021/06/22 10:17:29;;;;;;;127.90;13.90;;;;;;;33.90;32.98;100533.02;1735969;82;20956;-37
2021/06/22 10:19:59;;;;;;;144.62;15.40;;;;;;;33.91;32.73;100537.86;1732247;82;21494;-39
2021/06/22 10:22:28;;;;;;;127.80;13.98;;;;;;;34.03;33.72;100539.14;1737154;82;21482;-37
2021/06/22 10:24:57;;;;;;;123.87;13.70;;;;;;;34.21;32.89;100536.13;1732568;82;20992;-38
2021/06/22 10:27:24;;;;;;;120.20;12.43;;;;;;;34.33;31.89;100541.87;1728888;82;21147;-37
2021/06/22 10:29:53;;;;;;;97.67;10.98;;;;;;;34.34;30.09;100533.30;1733743;82;20960;-38
2021/06/22 10:32:22;;;;;;;106.63;11.85;;;;;;;34.07;29.66;100542.28;1734224;82;20900;-38
2021/06/22 10:34:51;;;;;;;110.45;11.45;;;;;;;33.71;30.08;100532.98;1733429;82;20984;-37
2021/06/22 10:37:33;;;;;;;94.00;10.95;;;;;;;33.47;30.42;100533.50;1734649;82;20976;-37
2021/06/22 10:40:24;;;;;;;86.78;9.80;;;;;;;33.39;31.34;100533.02;1734985;82;21134;-38
2021/06/22 10:42:53;;;;;;;75.32;9.00;;;;;;;33.55;30.46;100531.77;1733077;82;20975;-37
2021/06/22 10:45:20;;;;;;;71.62;8.00;;;;;;;33.65;30.97;100538.58;1732557;82;21556;-37
2021/06/22 10:47:47;;;;;;;81.82;8.03;;;;;;;33.63;31.76;100541.09;1732816;82;21707;-38
2021/06/22 10:50:25;;;;;;;50.70;7.20;;;;;;;33.74;30.10;100544.72;1733599;82;21019;-38
2021/06/22 10:53:02;;;;;;;75.70;8.75;;;;;;;33.78;30.30;100537.97;1733600;82;21037;-37
2021/06/22 10:55:46;;;;;;;70.30;9.08;;;;;;;33.77;33.02;100539.48;1735920;82;21546;-38
2021/06/22 10:58:14;;;;;;;82.45;9.88;;;;;;;34.02;33.18;100544.19;1739726;81;20959;-38
2021/06/22 11:00:50;;;;;;;85.38;9.13;;;;;;;34.19;32.47;100542.67;1716894;82;21024;-37
2021/06/22 11:03:30;;;;;;;67.10;8.65;;;;;;;34.30;32.19;100539.56;1716212;82;24009;-38
2021/06/22 11:06:16;;;;;;;77.37;8.68;;;;;;;34.47;32.80;100540.72;1710612;82;21458;-37
2021/06/22 11:08:44;;;;;;;63.73;7.72;;;;;;;34.55;31.65;100538.00;1708611;82;20906;-38
2021/06/22 11:11:15;;;;;;;72.32;7.75;;;;;;;34.70;31.46;100530.42;1714368;82;20909;-41
2021/06/22 11:13:56;;;;;;;57.65;7.60;;;;;;;34.80;32.62;100535.84;1720017;82;20992;-38
2021/06/22 11:16:33;;;;;;;44.00;6.25;;;;;;;34.92;31.43;100529.48;1720331;82;21037;-38
2021/06/22 11:19:03;;;;;;;57.27;6.80;;;;;;;34.99;30.34;100529.57;1721212;83;21056;-40
2021/06/22 11:21:51;;;;;;;33.98;5.75;;;;;;;35.18;30.08;100524.13;1717887;82;20956;-38
2021/06/22 11:24:26;;;;;;;70.83;7.55;;;;;;;35.34;30.32;100516.86;1723649;82;21624;-39